PY2UTU-WX Weather Reports


Display with metric or nautical units.
time (UTC)temp
F
wind
direction
speed
MPH
gust
MPH
rain 1hr
in
rain 24hr
in
rain mn
in
humidity
%
barometer
mb
20260505124225 74 0 0.0 0.0 0.00 0.00 0.00 98 928.7
20260505122725 74 0 0.0 0.0 0.00 0.00 0.00 98 928.6
20260505121225 72 0 0.0 0.0 0.00 0.00 0.00 98 928.6
20260505115725 73 0 0.0 0.0 0.00 0.00 0.00 98 928.4
20260505114225 72 0 0.0 0.0 0.00 0.00 0.00 98 928.3
20260505112725 71 0 0.0 0.0 0.00 0.00 0.00 98 928.3
20260505111225 72 0 0.0 0.0 0.00 0.00 0.00 98 927.9
20260505101225 70 0 0.0 0.0 0.00 0.00 0.00 98 927.5
20260505095725 70 0 0.0 0.0 0.00 0.00 0.00 98 927.3
20260505094225 70 0 0.0 0.0 0.00 0.00 0.00 98 927.2
20260505092725 70 0 0.0 0.0 0.00 0.00 0.00 98 927.1
20260505091225 71 0 0.0 0.0 0.00 0.00 0.00 98 926.8
20260505085725 70 0 0.0 0.0 0.00 0.00 0.00 98 926.7
20260505084225 70 0 0.0 0.0 0.00 0.00 0.00 98 926.6
20260505082725 70 0 0.0 0.0 0.00 0.00 0.00 98 926.3
20260505081225 70 0 0.0 0.0 0.00 0.00 0.00 98 926.2
20260505075725 70 0 0.0 0.0 0.00 0.00 0.00 98 926.1
20260505074225 70 0 0.0 0.0 0.00 0.00 0.00 98 926.2
20260505072725 70 0 0.0 0.0 0.00 0.00 0.00 98 926.2
20260505071225 69 0 0.0 0.0 0.00 0.00 0.00 98 926.4
20260505065725 70 0 0.0 0.0 0.00 0.00 0.00 98 926.5
20260505064225 71 0 0.0 0.0 0.00 0.00 0.00 98 926.6
20260505062725 69 0 0.0 0.0 0.00 0.00 0.00 98 926.6
20260505061225 71 0 0.0 0.0 0.00 0.00 0.00 98 926.7
20260505055724 71 0 0.0 0.0 0.00 0.00 0.00 98 926.6
20260505054224 70 0 0.0 0.0 0.00 0.00 0.00 98 926.7
20260505052724 71 0 0.0 0.0 0.00 0.00 0.00 98 926.7
20260505051224 70 0 0.0 0.0 0.00 0.00 0.00 98 926.8
20260505041224 70 0 0.0 0.0 0.00 0.00 0.00 98 927.1
20260505035724 71 0 0.0 0.0 0.00 0.00 0.00 98 927.3
20260505034224 71 0 0.0 0.0 0.00 0.00 0.00 98 927.3
20260505032724 71 0 0.0 0.0 0.00 0.00 0.00 98 927.2
20260505031224 70 0 0.0 0.0 0.00 0.00 0.00 98 927.2
20260505025724 70 0 0.0 0.0 0.00 0.00 0.00 98 927.2
20260505024224 70 0 0.0 0.0 0.00 0.00 0.00 98 927.2
20260505022724 71 0 0.0 0.0 0.00 0.00 0.00 98 927.1
20260505021224 71 0 0.0 0.0 0.00 0.00 0.00 98 927.2
20260505015724 71 0 0.0 0.0 0.00 0.00 0.00 98 927.3
20260505014224 70 0 0.0 0.0 0.00 0.00 0.00 98 927.2
20260505012724 69 0 0.0 0.0 0.00 0.00 0.00 98 927.2
20260505011224 70 0 0.0 0.0 0.00 0.00 0.00 98 927.2
20260505005724 69 0 0.0 0.0 0.00 0.00 0.00 98 927.2
20260505004224 68 0 0.0 0.0 0.00 0.00 0.00 98 927.1
20260505002724 68 0 0.0 0.0 0.00 0.00 0.00 98 927.2
20260505001224 67 0 0.0 0.0 0.00 0.00 0.00 98 927.1
20260504235724 66 0 0.0 0.0 0.00 0.00 0.00 98 927.1
20260504234224 66 0 0.0 0.0 0.00 0.00 0.00 98 927.0
20260504232724 67 0 0.0 0.0 0.00 0.00 0.00 98 926.9
20260504231224 67 0 0.0 0.0 0.00 0.00 0.00 98 926.8
20260504225724 66 0 0.0 0.0 0.00 0.00 0.00 98 926.5
20260504224224 66 0 0.0 0.0 0.00 0.00 0.00 98 926.4
20260504222724 67 0 0.0 0.0 0.00 0.00 0.00 98 926.2
20260504221224 67 0 0.0 0.0 0.00 0.00 0.00 98 926.2
20260504215724 68 0 0.0 0.0 0.00 0.00 0.00 98 925.9
20260504214224 67 0 0.0 0.0 0.00 0.00 0.00 98 925.7
20260504212724 68 0 0.0 0.0 0.00 0.00 0.00 98 925.6
20260504211224 68 0 0.0 0.0 0.00 0.00 0.00 98 925.4
20260504205724 68 0 0.0 0.0 0.00 0.00 0.00 98 925.3
20260504204224 69 0 0.0 0.0 0.00 0.00 0.00 98 925.3
20260504202724 70 0 0.0 0.0 0.00 0.00 0.00 98 925.3
20260504201224 70 0 0.0 0.0 0.00 0.00 0.00 98 925.3
20260504195724 71 0 0.0 0.0 0.00 0.00 0.00 98 925.0
20260504194224 73 0 0.0 0.0 0.00 0.00 0.00 98 925.1
20260504192725 75 0 0.0 0.0 0.00 0.00 0.00 98 925.0
20260504191225 77 0 0.0 0.0 0.00 0.00 0.00 98 924.6
20260504185724 77 0 0.0 0.0 0.00 0.00 0.00 98 924.4
20260504184224 78 0 0.0 0.0 0.00 0.00 0.00 97 924.4
20260504182724 81 0 0.0 0.0 0.00 0.00 0.00 96 924.3
20260504181224 81 0 0.0 0.0 0.00 0.00 0.00 96 924.3
20260504175724 79 0 0.0 0.0 0.00 0.00 0.00 98 924.3
20260504174224 77 0 0.0 0.0 0.00 0.00 0.00 98 924.4
20260504172724 76 0 0.0 0.0 0.00 0.00 0.00 98 924.6
20260504171224 77 0 0.0 0.0 0.00 0.00 0.00 98 924.6
20260504141224 71 0 0.0 0.0 0.00 0.00 0.00 98 927.0